sensor_id;sensor_type;location;lat;lon;timestamp;pressure;altitude;pressure_sealevel;temperature;humidity
61394;BME280;48555;50.952;-0.120;2023-04-29T00:01:29;101251.88;;;13.01;77.26
61394;BME280;48555;50.952;-0.120;2023-04-29T00:03:55;101250.91;;;13.02;77.08
61394;BME280;48555;50.952;-0.120;2023-04-29T00:06:20;101244.72;;;13.03;76.88
61394;BME280;48555;50.952;-0.120;2023-04-29T00:08:46;101259.41;;;13.05;76.60
61394;BME280;48555;50.952;-0.120;2023-04-29T00:11:11;101261.31;;;13.03;76.38
61394;BME280;48555;50.952;-0.120;2023-04-29T00:13:37;101264.41;;;12.97;76.80
61394;BME280;48555;50.952;-0.120;2023-04-29T00:16:06;101269.16;;;12.92;76.61
61394;BME280;48555;50.952;-0.120;2023-04-29T00:18:32;101267.06;;;12.84;77.07
61394;BME280;48555;50.952;-0.120;2023-04-29T00:20:58;101258.91;;;12.76;76.82
61394;BME280;48555;50.952;-0.120;2023-04-29T00:23:23;101265.72;;;12.79;76.82
61394;BME280;48555;50.952;-0.120;2023-04-29T00:25:48;101260.16;;;12.83;76.72
61394;BME280;48555;50.952;-0.120;2023-04-29T00:28:16;101262.44;;;12.88;76.32
61394;BME280;48555;50.952;-0.120;2023-04-29T00:30:41;101269.16;;;12.92;76.20
61394;BME280;48555;50.952;-0.120;2023-04-29T00:33:06;101269.75;;;12.95;75.89
61394;BME280;48555;50.952;-0.120;2023-04-29T00:35:31;101263.91;;;12.92;75.87
61394;BME280;48555;50.952;-0.120;2023-04-29T00:37:57;101266.75;;;12.89;75.89
61394;BME280;48555;50.952;-0.120;2023-04-29T00:40:22;101264.44;;;12.84;75.85
61394;BME280;48555;50.952;-0.120;2023-04-29T00:42:47;101266.69;;;12.78;75.78
61394;BME280;48555;50.952;-0.120;2023-04-29T00:45:13;101272.03;;;12.76;75.90
61394;BME280;48555;50.952;-0.120;2023-04-29T00:47:38;101266.19;;;12.72;75.85
61394;BME280;48555;50.952;-0.120;2023-04-29T00:50:05;101266.19;;;12.72;75.84
61394;BME280;48555;50.952;-0.120;2023-04-29T00:52:30;101272.47;;;12.70;75.97
61394;BME280;48555;50.952;-0.120;2023-04-29T00:54:57;101254.25;;;12.56;76.11
61394;BME280;48555;50.952;-0.120;2023-04-29T00:57:22;101268.25;;;12.56;76.19
61394;BME280;48555;50.952;-0.120;2023-04-29T00:59:48;101265.19;;;12.49;76.18
61394;BME280;48555;50.952;-0.120;2023-04-29T01:02:14;101266.59;;;12.42;76.27
61394;BME280;48555;50.952;-0.120;2023-04-29T01:04:39;101264.41;;;12.36;76.88
61394;BME280;48555;50.952;-0.120;2023-04-29T01:12:52;101264.22;;;12.14;77.46
61394;BME280;48555;50.952;-0.120;2023-04-29T01:15:29;101272.53;;;12.08;77.90
61394;BME280;48555;50.952;-0.120;2023-04-29T01:18:05;101269.50;;;12.01;77.84
61394;BME280;48555;50.952;-0.120;2023-04-29T01:20:34;101279.25;;;11.99;77.96
61394;BME280;48555;50.952;-0.120;2023-04-29T01:23:01;101278.50;;;11.97;78.21
61394;BME280;48555;50.952;-0.120;2023-04-29T01:25:27;101274.84;;;11.99;77.80
61394;BME280;48555;50.952;-0.120;2023-04-29T01:28:13;101272.88;;;12.03;77.66
61394;BME280;48555;50.952;-0.120;2023-04-29T01:36:30;101273.47;;;12.07;77.36
61394;BME280;48555;50.952;-0.120;2023-04-29T01:41:43;101277.91;;;12.06;77.30
61394;BME280;48555;50.952;-0.120;2023-04-29T01:44:17;101270.75;;;12.08;76.87
61394;BME280;48555;50.952;-0.120;2023-04-29T01:46:52;101277.97;;;12.04;76.86
61394;BME280;48555;50.952;-0.120;2023-04-29T01:49:20;101289.50;;;12.02;77.27
61394;BME280;48555;50.952;-0.120;2023-04-29T01:51:45;101292.88;;;12.04;76.96
61394;BME280;48555;50.952;-0.120;2023-04-29T01:54:10;101288.25;;;12.08;76.94
61394;BME280;48555;50.952;-0.120;2023-04-29T01:56:36;101283.84;;;12.08;76.93
61394;BME280;48555;50.952;-0.120;2023-04-29T01:59:01;101288.25;;;12.08;76.38
61394;BME280;48555;50.952;-0.120;2023-04-29T02:01:26;101285.97;;;12.03;76.54
61394;BME280;48555;50.952;-0.120;2023-04-29T02:03:52;101293.84;;;12.03;76.35
61394;BME280;48555;50.952;-0.120;2023-04-29T02:06:17;101291.00;;;12.06;76.34
61394;BME280;48555;50.952;-0.120;2023-04-29T02:08:42;101291.84;;;12.07;76.10
61394;BME280;48555;50.952;-0.120;2023-04-29T02:11:08;101290.13;;;12.05;76.10
61394;BME280;48555;50.952;-0.120;2023-04-29T02:13:33;101292.03;;;12.03;76.04
61394;BME280;48555;50.952;-0.120;2023-04-29T02:16:07;101291.50;;;11.98;75.98
61394;BME280;48555;50.952;-0.120;2023-04-29T02:18:32;101289.31;;;11.92;75.83
61394;BME280;48555;50.952;-0.120;2023-04-29T02:21:00;101287.13;;;11.86;75.90
61394;BME280;48555;50.952;-0.120;2023-04-29T02:23:26;101287.38;;;11.81;76.23
61394;BME280;48555;50.952;-0.120;2023-04-29T02:25:51;101290.13;;;11.80;76.19
61394;BME280;48555;50.952;-0.120;2023-04-29T02:28:17;101291.19;;;11.77;76.51
61394;BME280;48555;50.952;-0.120;2023-04-29T02:30:42;101291.59;;;11.71;76.64
61394;BME280;48555;50.952;-0.120;2023-04-29T02:33:07;101298.72;;;11.69;76.69
61394;BME280;48555;50.952;-0.120;2023-04-29T02:35:33;101294.72;;;11.64;76.65
61394;BME280;48555;50.952;-0.120;2023-04-29T02:37:58;101295.88;;;11.59;76.94
61394;BME280;48555;50.952;-0.120;2023-04-29T02:40:23;101304.78;;;11.57;77.19
61394;BME280;48555;50.952;-0.120;2023-04-29T02:42:50;101303.19;;;11.54;77.20
61394;BME280;48555;50.952;-0.120;2023-04-29T02:45:16;101301.41;;;11.55;77.06
61394;BME280;48555;50.952;-0.120;2023-04-29T02:47:41;101305.81;;;11.54;77.11
61394;BME280;48555;50.952;-0.120;2023-04-29T02:50:07;101306.66;;;11.55;77.20
61394;BME280;48555;50.952;-0.120;2023-04-29T02:52:32;101307.47;;;11.55;77.01
61394;BME280;48555;50.952;-0.120;2023-04-29T02:54:58;101303.28;;;11.53;76.83
61394;BME280;48555;50.952;-0.120;2023-04-29T02:57:23;101314.81;;;11.50;76.95
61394;BME280;48555;50.952;-0.120;2023-04-29T02:59:48;101319.41;;;11.47;76.99
61394;BME280;48555;50.952;-0.120;2023-04-29T03:02:14;101306.94;;;11.37;76.68
61394;BME280;48555;50.952;-0.120;2023-04-29T03:04:39;101317.41;;;11.37;76.95
61394;BME280;48555;50.952;-0.120;2023-04-29T03:07:04;101312.38;;;11.34;76.77
61394;BME280;48555;50.952;-0.120;2023-04-29T03:09:32;101314.44;;;11.29;76.62
61394;BME280;48555;50.952;-0.120;2023-04-29T03:11:57;101315.59;;;11.25;76.61
61394;BME280;48555;50.952;-0.120;2023-04-29T03:14:22;101309.09;;;11.18;76.52
61394;BME280;48555;50.952;-0.120;2023-04-29T03:16:48;101307.44;;;11.03;76.92
61394;BME280;48555;50.952;-0.120;2023-04-29T03:19:13;101316.44;;;10.99;77.00
61394;BME280;48555;50.952;-0.120;2023-04-29T03:21:38;101313.38;;;10.92;77.44
61394;BME280;48555;50.952;-0.120;2023-04-29T03:24:04;101310.13;;;10.88;77.55
61394;BME280;48555;50.952;-0.120;2023-04-29T03:26:29;101318.06;;;10.87;77.41
61394;BME280;48555;50.952;-0.120;2023-04-29T03:28:55;101308.94;;;10.80;77.59
61394;BME280;48555;50.952;-0.120;2023-04-29T03:31:20;101316.03;;;10.78;78.07
61394;BME280;48555;50.952;-0.120;2023-04-29T03:33:47;101324.34;;;10.70;78.21
61394;BME280;48555;50.952;-0.120;2023-04-29T03:36:12;101325.56;;;10.64;78.44
61394;BME280;48555;50.952;-0.120;2023-04-29T03:38:38;101326.91;;;10.57;78.99
61394;BME280;48555;50.952;-0.120;2023-04-29T03:41:03;101332.59;;;10.50;79.11
61394;BME280;48555;50.952;-0.120;2023-04-29T03:43:29;101328.59;;;10.44;79.63
61394;BME280;48555;50.952;-0.120;2023-04-29T03:45:54;101337.31;;;10.44;79.34
61394;BME280;48555;50.952;-0.120;2023-04-29T03:48:20;101334.00;;;10.41;79.48
61394;BME280;48555;50.952;-0.120;2023-04-29T03:50:45;101348.03;;;10.40;79.60
61394;BME280;48555;50.952;-0.120;2023-04-29T03:53:12;101341.22;;;10.37;79.39
61394;BME280;48555;50.952;-0.120;2023-04-29T03:55:38;101339.53;;;10.36;79.21
61394;BME280;48555;50.952;-0.120;2023-04-29T03:58:04;101339.44;;;10.38;79.16
61394;BME280;48555;50.952;-0.120;2023-04-29T04:00:30;101339.22;;;10.41;78.96
61394;BME280;48555;50.952;-0.120;2023-04-29T04:02:56;101352.59;;;10.51;78.68
61394;BME280;48555;50.952;-0.120;2023-04-29T04:05:22;101343.63;;;10.55;78.53
61394;BME280;48555;50.952;-0.120;2023-04-29T04:07:52;101352.22;;;10.57;78.06
61394;BME280;48555;50.952;-0.120;2023-04-29T04:10:18;101360.78;;;10.59;77.70
61394;BME280;48555;50.952;-0.120;2023-04-29T04:12:44;101366.03;;;10.59;77.95
61394;BME280;48555;50.952;-0.120;2023-04-29T04:15:10;101364.53;;;10.55;77.83
61394;BME280;48555;50.952;-0.120;2023-04-29T04:17:35;101376.78;;;10.54;77.75
61394;BME280;48555;50.952;-0.120;2023-04-29T04:20:00;101381.00;;;10.57;77.53
61394;BME280;48555;50.952;-0.120;2023-04-29T04:22:26;101382.66;;;10.58;77.39
61394;BME280;48555;50.952;-0.120;2023-04-29T04:24:53;101385.38;;;10.56;77.35
61394;BME280;48555;50.952;-0.120;2023-04-29T04:27:19;101386.59;;;10.51;77.01
61394;BME280;48555;50.952;-0.120;2023-04-29T04:29:45;101383.41;;;10.45;77.17
61394;BME280;48555;50.952;-0.120;2023-04-29T04:32:10;101393.31;;;10.40;77.12
61394;BME280;48555;50.952;-0.120;2023-04-29T04:34:36;101387.19;;;10.26;77.39
61394;BME280;48555;50.952;-0.120;2023-04-29T04:37:03;101400.56;;;10.21;77.45
61394;BME280;48555;50.952;-0.120;2023-04-29T04:39:29;101394.75;;;10.16;77.54
61394;BME280;48555;50.952;-0.120;2023-04-29T04:41:54;101394.66;;;10.17;77.42
61394;BME280;48555;50.952;-0.120;2023-04-29T04:44:20;101401.66;;;10.17;77.12
61394;BME280;48555;50.952;-0.120;2023-04-29T04:46:46;101405.78;;;10.21;77.23
61394;BME280;48555;50.952;-0.120;2023-04-29T04:49:11;101415.56;;;10.17;77.39
61394;BME280;48555;50.952;-0.120;2023-04-29T04:51:36;101415.91;;;10.11;77.18
61394;BME280;48555;50.952;-0.120;2023-04-29T04:54:02;101411.06;;;10.05;77.36
61394;BME280;48555;50.952;-0.120;2023-04-29T04:56:27;101423.94;;;10.08;77.32
61394;BME280;48555;50.952;-0.120;2023-04-29T04:58:53;101423.28;;;10.05;77.54
61394;BME280;48555;50.952;-0.120;2023-04-29T05:01:18;101415.44;;;10.05;77.55
61394;BME280;48555;50.952;-0.120;2023-04-29T05:03:43;101423.09;;;10.08;77.84
61394;BME280;48555;50.952;-0.120;2023-04-29T05:06:08;101432.53;;;10.10;77.96
61394;BME280;48555;50.952;-0.120;2023-04-29T05:08:34;101436.00;;;10.11;78.31
61394;BME280;48555;50.952;-0.120;2023-04-29T05:10:59;101439.38;;;10.13;78.66
61394;BME280;48555;50.952;-0.120;2023-04-29T05:13:25;101447.78;;;10.18;78.83
61394;BME280;48555;50.952;-0.120;2023-04-29T05:15:50;101444.81;;;10.24;78.98
61394;BME280;48555;50.952;-0.120;2023-04-29T05:18:16;101439.97;;;10.32;78.94
61394;BME280;48555;50.952;-0.120;2023-04-29T05:20:41;101443.63;;;10.44;78.94
61394;BME280;48555;50.952;-0.120;2023-04-29T05:23:06;101441.88;;;10.59;79.29
61394;BME280;48555;50.952;-0.120;2023-04-29T05:25:33;101443.00;;;10.69;79.24
61394;BME280;48555;50.952;-0.120;2023-04-29T05:27:58;101444.03;;;10.81;78.98
61394;BME280;48555;50.952;-0.120;2023-04-29T05:30:23;101439.63;;;10.96;79.21
61394;BME280;48555;50.952;-0.120;2023-04-29T05:32:49;101446.63;;;11.09;79.07
61394;BME280;48555;50.952;-0.120;2023-04-29T05:35:14;101448.34;;;11.23;79.07
61394;BME280;48555;50.952;-0.120;2023-04-29T05:37:40;101451.34;;;11.31;79.32
61394;BME280;48555;50.952;-0.120;2023-04-29T05:40:06;101446.00;;;11.33;79.10
61394;BME280;48555;50.952;-0.120;2023-04-29T05:42:32;101447.97;;;11.29;79.26
61394;BME280;48555;50.952;-0.120;2023-04-29T05:44:57;101452.66;;;11.24;79.40
61394;BME280;48555;50.952;-0.120;2023-04-29T05:47:22;101456.41;;;11.20;79.59
61394;BME280;48555;50.952;-0.120;2023-04-29T05:49:48;101459.13;;;11.19;79.76
61394;BME280;48555;50.952;-0.120;2023-04-29T05:52:14;101458.50;;;11.15;79.99
61394;BME280;48555;50.952;-0.120;2023-04-29T05:54:39;101460.13;;;11.30;80.12
61394;BME280;48555;50.952;-0.120;2023-04-29T05:57:06;101459.88;;;11.62;80.07
61394;BME280;48555;50.952;-0.120;2023-04-29T05:59:32;101457.81;;;12.07;79.32
61394;BME280;48555;50.952;-0.120;2023-04-29T06:01:58;101451.03;;;12.56;77.61
61394;BME280;48555;50.952;-0.120;2023-04-29T06:04:24;101460.31;;;13.11;76.58
61394;BME280;48555;50.952;-0.120;2023-04-29T06:06:53;101464.47;;;13.63;73.19
61394;BME280;48555;50.952;-0.120;2023-04-29T06:09:19;101457.94;;;14.04;72.03
61394;BME280;48555;50.952;-0.120;2023-04-29T06:11:45;101457.31;;;14.36;70.39
61394;BME280;48555;50.952;-0.120;2023-04-29T06:14:11;101470.16;;;14.85;69.23
61394;BME280;48555;50.952;-0.120;2023-04-29T06:16:36;101475.88;;;15.35;67.64
61394;BME280;48555;50.952;-0.120;2023-04-29T06:19:02;101475.78;;;15.80;66.15
61394;BME280;48555;50.952;-0.120;2023-04-29T06:21:27;101476.56;;;16.13;63.96
61394;BME280;48555;50.952;-0.120;2023-04-29T06:23:53;101478.25;;;16.35;62.23
61394;BME280;48555;50.952;-0.120;2023-04-29T06:26:19;101478.38;;;16.54;61.21
61394;BME280;48555;50.952;-0.120;2023-04-29T06:28:45;101477.38;;;16.76;59.54
61394;BME280;48555;50.952;-0.120;2023-04-29T06:31:10;101484.59;;;17.05;58.82
61394;BME280;48555;50.952;-0.120;2023-04-29T06:33:36;101492.16;;;17.19;57.92
61394;BME280;48555;50.952;-0.120;2023-04-29T06:36:01;101493.16;;;17.38;56.73
61394;BME280;48555;50.952;-0.120;2023-04-29T06:38:27;101495.03;;;17.66;57.08
61394;BME280;48555;50.952;-0.120;2023-04-29T06:40:52;101498.13;;;17.91;55.01
61394;BME280;48555;50.952;-0.120;2023-04-29T06:43:17;101501.19;;;17.96;53.72
61394;BME280;48555;50.952;-0.120;2023-04-29T06:45:45;101501.47;;;18.03;54.14
61394;BME280;48555;50.952;-0.120;2023-04-29T06:48:11;101512.47;;;18.08;53.11
61394;BME280;48555;50.952;-0.120;2023-04-29T06:50:36;101515.41;;;17.95;52.36
61394;BME280;48555;50.952;-0.120;2023-04-29T06:53:01;101508.44;;;17.84;52.53
61394;BME280;48555;50.952;-0.120;2023-04-29T06:55:27;101496.91;;;17.85;52.58
61394;BME280;48555;50.952;-0.120;2023-04-29T06:57:52;101508.59;;;17.83;52.70
61394;BME280;48555;50.952;-0.120;2023-04-29T07:00:18;101508.88;;;17.80;53.28
61394;BME280;48555;50.952;-0.120;2023-04-29T07:02:45;101509.63;;;17.61;53.40
61394;BME280;48555;50.952;-0.120;2023-04-29T07:05:10;101510.75;;;17.08;54.03
61394;BME280;48555;50.952;-0.120;2023-04-29T07:07:36;101514.69;;;16.62;55.16
61394;BME280;48555;50.952;-0.120;2023-04-29T07:10:01;101524.53;;;16.18;56.38
61394;BME280;48555;50.952;-0.120;2023-04-29T07:12:26;101521.53;;;15.79;57.52
61394;BME280;48555;50.952;-0.120;2023-04-29T07:14:52;101523.78;;;15.29;58.65
61394;BME280;48555;50.952;-0.120;2023-04-29T07:17:17;101531.94;;;14.81;60.37
61394;BME280;48555;50.952;-0.120;2023-04-29T07:19:42;101534.16;;;14.52;61.26
61394;BME280;48555;50.952;-0.120;2023-04-29T07:22:08;101538.47;;;14.18;62.32
61394;BME280;48555;50.952;-0.120;2023-04-29T07:24:33;101544.38;;;13.84;63.69
61394;BME280;48555;50.952;-0.120;2023-04-29T07:26:59;101526.63;;;13.51;64.69
61394;BME280;48555;50.952;-0.120;2023-04-29T07:29:24;101551.25;;;13.50;65.43
61394;BME280;48555;50.952;-0.120;2023-04-29T07:31:49;101554.75;;;13.25;66.28
61394;BME280;48555;50.952;-0.120;2023-04-29T07:34:15;101550.41;;;13.11;66.67
61394;BME280;48555;50.952;-0.120;2023-04-29T07:36:40;101554.00;;;12.98;67.61
61394;BME280;48555;50.952;-0.120;2023-04-29T07:39:06;101558.63;;;12.81;67.49
61394;BME280;48555;50.952;-0.120;2023-04-29T07:41:31;101551.66;;;12.67;68.67
61394;BME280;48555;50.952;-0.120;2023-04-29T07:43:57;101558.50;;;12.57;69.35
61394;BME280;48555;50.952;-0.120;2023-04-29T07:46:22;101563.31;;;12.50;70.02
61394;BME280;48555;50.952;-0.120;2023-04-29T07:48:47;101562.66;;;12.47;70.79
61394;BME280;48555;50.952;-0.120;2023-04-29T07:51:13;101563.63;;;12.46;70.93
61394;BME280;48555;50.952;-0.120;2023-04-29T07:53:39;101570.34;;;12.50;71.04
61394;BME280;48555;50.952;-0.120;2023-04-29T07:56:06;101565.81;;;12.52;70.96
61394;BME280;48555;50.952;-0.120;2023-04-29T07:58:32;101563.66;;;12.71;70.79
61394;BME280;48555;50.952;-0.120;2023-04-29T08:01:04;101563.88;;;13.32;71.17
61394;BME280;48555;50.952;-0.120;2023-04-29T08:03:30;101563.84;;;13.45;69.76
61394;BME280;48555;50.952;-0.120;2023-04-29T08:05:59;101564.25;;;13.52;68.65
61394;BME280;48555;50.952;-0.120;2023-04-29T08:08:25;101551.88;;;13.41;67.91
61394;BME280;48555;50.952;-0.120;2023-04-29T08:10:50;101553.88;;;13.50;68.41
61394;BME280;48555;50.952;-0.120;2023-04-29T08:13:16;101556.66;;;13.60;68.40
61394;BME280;48555;50.952;-0.120;2023-04-29T08:15:41;101567.28;;;13.95;67.83
61394;BME280;48555;50.952;-0.120;2023-04-29T08:18:07;101566.81;;;14.01;67.36
61394;BME280;48555;50.952;-0.120;2023-04-29T08:20:32;101562.34;;;13.91;66.71
61394;BME280;48555;50.952;-0.120;2023-04-29T08:22:58;101577.28;;;13.90;66.75
61394;BME280;48555;50.952;-0.120;2023-04-29T08:25:25;101573.38;;;13.96;67.06
61394;BME280;48555;50.952;-0.120;2023-04-29T08:27:51;101576.34;;;14.15;67.09
61394;BME280;48555;50.952;-0.120;2023-04-29T08:30:16;101576.94;;;14.19;67.06
61394;BME280;48555;50.952;-0.120;2023-04-29T08:32:42;101579.88;;;14.27;66.81
61394;BME280;48555;50.952;-0.120;2023-04-29T08:35:07;101574.75;;;14.37;66.67
61394;BME280;48555;50.952;-0.120;2023-04-29T08:37:33;101577.03;;;14.41;65.71
61394;BME280;48555;50.952;-0.120;2023-04-29T08:39:58;101581.00;;;14.47;65.69
61394;BME280;48555;50.952;-0.120;2023-04-29T08:42:34;101580.69;;;14.51;65.99
61394;BME280;48555;50.952;-0.120;2023-04-29T08:45:01;101584.28;;;14.62;65.88
61394;BME280;48555;50.952;-0.120;2023-04-29T08:47:32;101573.94;;;14.71;65.66
61394;BME280;48555;50.952;-0.120;2023-04-29T08:50:03;101595.41;;;14.54;65.60
61394;BME280;48555;50.952;-0.120;2023-04-29T08:52:30;101590.56;;;14.48;65.14
61394;BME280;48555;50.952;-0.120;2023-04-29T08:54:56;101590.31;;;14.40;65.59
61394;BME280;48555;50.952;-0.120;2023-04-29T08:57:24;101596.16;;;14.43;65.20
61394;BME280;48555;50.952;-0.120;2023-04-29T08:59:50;101599.00;;;14.53;65.68
61394;BME280;48555;50.952;-0.120;2023-04-29T09:02:16;101595.69;;;14.73;65.47
61394;BME280;48555;50.952;-0.120;2023-04-29T09:04:52;101612.69;;;14.69;64.93
61394;BME280;48555;50.952;-0.120;2023-04-29T09:07:20;101605.03;;;14.66;64.43
61394;BME280;48555;50.952;-0.120;2023-04-29T09:09:47;101610.28;;;14.66;64.56
61394;BME280;48555;50.952;-0.120;2023-04-29T09:12:13;101611.34;;;14.64;64.43
61394;BME280;48555;50.952;-0.120;2023-04-29T09:14:38;101608.66;;;14.76;64.40
61394;BME280;48555;50.952;-0.120;2023-04-29T09:17:04;101605.44;;;14.95;64.40
61394;BME280;48555;50.952;-0.120;2023-04-29T09:19:31;101609.78;;;15.08;63.80
61394;BME280;48555;50.952;-0.120;2023-04-29T09:21:56;101606.81;;;15.24;63.83
61394;BME280;48555;50.952;-0.120;2023-04-29T09:24:26;101609.53;;;15.56;63.63
61394;BME280;48555;50.952;-0.120;2023-04-29T09:26:52;101608.47;;;15.81;63.30
61394;BME280;48555;50.952;-0.120;2023-04-29T09:29:17;101607.66;;;16.12;62.30
61394;BME280;48555;50.952;-0.120;2023-04-29T09:31:43;101627.19;;;16.53;61.59
61394;BME280;48555;50.952;-0.120;2023-04-29T09:34:09;101617.16;;;16.68;61.06
61394;BME280;48555;50.952;-0.120;2023-04-29T09:39:08;101626.56;;;16.82;59.39
61394;BME280;48555;50.952;-0.120;2023-04-29T09:44:18;101626.41;;;16.95;59.16
61394;BME280;48555;50.952;-0.120;2023-04-29T09:46:57;101628.91;;;16.96;57.87
61394;BME280;48555;50.952;-0.120;2023-04-29T09:49:26;101621.13;;;16.95;57.23
61394;BME280;48555;50.952;-0.120;2023-04-29T09:51:53;101627.72;;;17.10;57.42
61394;BME280;48555;50.952;-0.120;2023-04-29T09:54:20;101629.94;;;17.36;57.25
61394;BME280;48555;50.952;-0.120;2023-04-29T09:56:50;101629.69;;;17.39;56.94
61394;BME280;48555;50.952;-0.120;2023-04-29T09:59:20;101627.56;;;17.33;56.66
61394;BME280;48555;50.952;-0.120;2023-04-29T10:01:48;101611.91;;;17.20;56.76
61394;BME280;48555;50.952;-0.120;2023-04-29T10:04:15;101624.66;;;17.36;57.35
61394;BME280;48555;50.952;-0.120;2023-04-29T10:06:42;101622.41;;;17.62;57.53
61394;BME280;48555;50.952;-0.120;2023-04-29T10:09:12;101626.38;;;17.87;56.76
61394;BME280;48555;50.952;-0.120;2023-04-29T10:11:40;101631.44;;;18.09;56.77
61394;BME280;48555;50.952;-0.120;2023-04-29T10:14:10;101638.44;;;18.39;56.41
61394;BME280;48555;50.952;-0.120;2023-04-29T10:16:42;101641.91;;;18.59;55.67
61394;BME280;48555;50.952;-0.120;2023-04-29T10:19:11;101639.84;;;18.82;55.49
61394;BME280;48555;50.952;-0.120;2023-04-29T10:21:40;101635.72;;;19.08;55.30
61394;BME280;48555;50.952;-0.120;2023-04-29T10:24:06;101634.72;;;19.18;54.63
61394;BME280;48555;50.952;-0.120;2023-04-29T10:26:33;101630.56;;;19.16;54.38
61394;BME280;48555;50.952;-0.120;2023-04-29T10:29:02;101628.84;;;19.15;53.65
61394;BME280;48555;50.952;-0.120;2023-04-29T10:31:30;101635.88;;;19.06;53.05
61394;BME280;48555;50.952;-0.120;2023-04-29T10:33:57;101639.38;;;18.97;53.19
61394;BME280;48555;50.952;-0.120;2023-04-29T10:36:24;101635.47;;;19.01;53.23
61394;BME280;48555;50.952;-0.120;2023-04-29T10:38:52;101630.75;;;18.95;53.49
61394;BME280;48555;50.952;-0.120;2023-04-29T10:41:21;101642.03;;;18.87;53.42
61394;BME280;48555;50.952;-0.120;2023-04-29T10:43:49;101641.75;;;18.90;54.33
61394;BME280;48555;50.952;-0.120;2023-04-29T10:46:22;101637.84;;;19.04;54.64
61394;BME280;48555;50.952;-0.120;2023-04-29T10:48:50;101639.88;;;19.20;54.65
61394;BME280;48555;50.952;-0.120;2023-04-29T10:56:40;101634.66;;;19.38;52.33
61394;BME280;48555;50.952;-0.120;2023-04-29T10:59:12;101626.88;;;19.26;52.53
61394;BME280;48555;50.952;-0.120;2023-04-29T11:04:06;101628.06;;;19.04;52.20
61394;BME280;48555;50.952;-0.120;2023-04-29T11:09:03;101619.25;;;19.14;51.63
61394;BME280;48555;50.952;-0.120;2023-04-29T11:11:42;101618.00;;;19.18;51.73
61394;BME280;48555;50.952;-0.120;2023-04-29T11:14:09;101629.97;;;19.22;52.19
61394;BME280;48555;50.952;-0.120;2023-04-29T11:16:46;101619.84;;;19.35;52.31
61394;BME280;48555;50.952;-0.120;2023-04-29T11:19:14;101619.09;;;19.52;52.43
61394;BME280;48555;50.952;-0.120;2023-04-29T11:21:40;101621.97;;;19.69;51.79
61394;BME280;48555;50.952;-0.120;2023-04-29T11:24:05;101626.59;;;19.67;51.67
61394;BME280;48555;50.952;-0.120;2023-04-29T11:26:33;101617.19;;;19.72;51.28
61394;BME280;48555;50.952;-0.120;2023-04-29T11:28:59;101614.72;;;19.71;51.37
61394;BME280;48555;50.952;-0.120;2023-04-29T11:31:31;101622.66;;;19.71;51.48
61394;BME280;48555;50.952;-0.120;2023-04-29T11:33:57;101627.38;;;19.77;51.58
61394;BME280;48555;50.952;-0.120;2023-04-29T11:36:23;101632.41;;;19.80;51.31
61394;BME280;48555;50.952;-0.120;2023-04-29T11:38:48;101624.03;;;19.75;50.75
61394;BME280;48555;50.952;-0.120;2023-04-29T11:41:14;101632.28;;;19.72;50.62
61394;BME280;48555;50.952;-0.120;2023-04-29T11:43:40;101627.84;;;19.63;50.94
61394;BME280;48555;50.952;-0.120;2023-04-29T11:46:14;101623.78;;;19.59;50.33
61394;BME280;48555;50.952;-0.120;2023-04-29T11:48:46;101628.38;;;19.39;49.86
61394;BME280;48555;50.952;-0.120;2023-04-29T11:51:13;101627.84;;;19.25;50.58
61394;BME280;48555;50.952;-0.120;2023-04-29T11:53:38;101628.84;;;19.15;51.02
61394;BME280;48555;50.952;-0.120;2023-04-29T11:56:04;101621.91;;;19.14;51.14
61394;BME280;48555;50.952;-0.120;2023-04-29T11:58:30;101621.97;;;19.32;51.08
61394;BME280;48555;50.952;-0.120;2023-04-29T12:00:57;101627.38;;;19.40;51.04
61394;BME280;48555;50.952;-0.120;2023-04-29T12:03:22;101626.91;;;19.54;50.63
61394;BME280;48555;50.952;-0.120;2023-04-29T12:05:54;101616.97;;;19.66;50.94
61394;BME280;48555;50.952;-0.120;2023-04-29T12:08:24;101625.88;;;19.92;51.31
61394;BME280;48555;50.952;-0.120;2023-04-29T12:10:51;101628.69;;;20.09;51.98
61394;BME280;48555;50.952;-0.120;2023-04-29T12:13:17;101622.94;;;20.13;50.64
61394;BME280;48555;50.952;-0.120;2023-04-29T12:15:44;101619.75;;;20.10;49.56
61394;BME280;48555;50.952;-0.120;2023-04-29T12:18:11;101615.41;;;20.09;49.73
61394;BME280;48555;50.952;-0.120;2023-04-29T12:20:36;101615.41;;;20.09;49.82
61394;BME280;48555;50.952;-0.120;2023-04-29T12:23:32;101612.09;;;20.07;49.52
61394;BME280;48555;50.952;-0.120;2023-04-29T12:25:59;101610.09;;;20.09;49.41
61394;BME280;48555;50.952;-0.120;2023-04-29T12:28:26;101606.31;;;20.11;50.19
61394;BME280;48555;50.952;-0.120;2023-04-29T12:30:52;101611.41;;;20.23;51.00
61394;BME280;48555;50.952;-0.120;2023-04-29T12:33:23;101611.72;;;20.19;51.64
61394;BME280;48555;50.952;-0.120;2023-04-29T12:35:50;101609.88;;;20.20;51.55
61394;BME280;48555;50.952;-0.120;2023-04-29T12:38:19;101611.94;;;20.26;52.17
61394;BME280;48555;50.952;-0.120;2023-04-29T12:40:45;101608.16;;;20.29;52.45
61394;BME280;48555;50.952;-0.120;2023-04-29T12:43:10;101602.00;;;20.28;52.40
61394;BME280;48555;50.952;-0.120;2023-04-29T12:45:37;101597.22;;;20.32;52.32
61394;BME280;48555;50.952;-0.120;2023-04-29T12:48:03;101607.22;;;20.38;52.45
61394;BME280;48555;50.952;-0.120;2023-04-29T12:50:36;101605.13;;;20.41;52.95
61394;BME280;48555;50.952;-0.120;2023-04-29T12:53:06;101604.88;;;20.53;53.66
61394;BME280;48555;50.952;-0.120;2023-04-29T12:55:32;101597.66;;;20.63;52.55
61394;BME280;48555;50.952;-0.120;2023-04-29T12:57:59;101610.59;;;20.58;51.50
61394;BME280;48555;50.952;-0.120;2023-04-29T13:00:24;101602.00;;;20.46;51.46
61394;BME280;48555;50.952;-0.120;2023-04-29T13:02:49;101599.63;;;20.43;51.78
61394;BME280;48555;50.952;-0.120;2023-04-29T13:05:15;101605.13;;;20.41;52.12
61394;BME280;48555;50.952;-0.120;2023-04-29T13:07:41;101603.38;;;20.50;52.56